sensor_id;sensor_type;location;lat;lon;timestamp;pressure;altitude;pressure_sealevel;temperature;humidity
71299;BME280;59083;47.974;21.722;2023-06-22T00:02:18;100419.22;;;21.66;100.00
71299;BME280;59083;47.974;21.722;2023-06-22T00:05:19;100405.66;;;21.66;100.00
71299;BME280;59083;47.974;21.722;2023-06-22T00:08:20;100419.28;;;21.71;100.00
71299;BME280;59083;47.974;21.722;2023-06-22T00:11:22;100407.59;;;21.71;100.00
71299;BME280;59083;47.974;21.722;2023-06-22T00:14:24;100403.75;;;21.62;100.00
71299;BME280;59083;47.974;21.722;2023-06-22T00:17:25;100412.66;;;21.57;100.00
71299;BME280;59083;47.974;21.722;2023-06-22T00:20:26;100404.56;;;21.62;100.00
71299;BME280;59083;47.974;21.722;2023-06-22T00:23:31;100391.69;;;21.48;100.00
71299;BME280;59083;47.974;21.722;2023-06-22T00:26:35;100400.59;;;21.43;100.00
71299;BME280;59083;47.974;21.722;2023-06-22T00:29:36;100408.78;;;21.48;100.00
71299;BME280;59083;47.974;21.722;2023-06-22T00:32:37;100408.03;;;21.53;100.00
71299;BME280;59083;47.974;21.722;2023-06-22T00:35:38;100394.62;;;21.41;100.00
71299;BME280;59083;47.974;21.722;2023-06-22T00:38:42;100379.50;;;21.50;100.00
71299;BME280;59083;47.974;21.722;2023-06-22T00:41:44;100390.75;;;21.64;100.00
71299;BME280;59083;47.974;21.722;2023-06-22T00:44:45;100398.59;;;21.65;100.00
71299;BME280;59083;47.974;21.722;2023-06-22T00:47:46;100404.03;;;21.65;100.00
71299;BME280;59083;47.974;21.722;2023-06-22T00:50:47;100413.59;;;21.73;100.00
71299;BME280;59083;47.974;21.722;2023-06-22T00:53:52;100420.91;;;21.72;100.00
71299;BME280;59083;47.974;21.722;2023-06-22T00:56:54;100424.66;;;21.66;100.00
71299;BME280;59083;47.974;21.722;2023-06-22T00:59:57;100440.91;;;21.61;100.00
71299;BME280;59083;47.974;21.722;2023-06-22T01:02:58;100440.06;;;21.61;100.00
71299;BME280;59083;47.974;21.722;2023-06-22T01:06:08;100455.62;;;21.70;100.00
71299;BME280;59083;47.974;21.722;2023-06-22T01:09:15;100457.31;;;21.81;100.00
71299;BME280;59083;47.974;21.722;2023-06-22T01:12:21;100449.16;;;21.76;100.00
71299;BME280;59083;47.974;21.722;2023-06-22T01:15:33;100461.91;;;21.76;100.00
71299;BME280;59083;47.974;21.722;2023-06-22T01:18:40;100477.31;;;21.70;100.00
71299;BME280;59083;47.974;21.722;2023-06-22T01:21:42;100489.22;;;21.64;100.00
71299;BME280;59083;47.974;21.722;2023-06-22T01:24:54;100500.53;;;21.56;100.00
71299;BME280;59083;47.974;21.722;2023-06-22T01:31:20;100493.38;;;21.45;100.00
71299;BME280;59083;47.974;21.722;2023-06-22T01:34:23;100488.19;;;21.43;100.00
71299;BME280;59083;47.974;21.722;2023-06-22T01:37:27;100489.53;;;21.41;100.00
71299;BME280;59083;47.974;21.722;2023-06-22T01:40:29;100489.03;;;21.44;100.00
71299;BME280;59083;47.974;21.722;2023-06-22T01:43:33;100487.09;;;21.39;100.00
71299;BME280;59083;47.974;21.722;2023-06-22T01:46:37;100493.81;;;21.37;100.00
71299;BME280;59083;47.974;21.722;2023-06-22T01:49:40;100477.56;;;21.37;100.00
71299;BME280;59083;47.974;21.722;2023-06-22T01:52:41;100471.63;;;21.40;100.00
71299;BME280;59083;47.974;21.722;2023-06-22T01:55:43;100462.34;;;21.36;100.00
71299;BME280;59083;47.974;21.722;2023-06-22T01:58:50;100459.53;;;21.26;100.00
71299;BME280;59083;47.974;21.722;2023-06-22T02:02:01;100464.91;;;21.21;100.00
71299;BME280;59083;47.974;21.722;2023-06-22T02:05:06;100463.72;;;21.12;100.00
71299;BME280;59083;47.974;21.722;2023-06-22T02:08:29;100455.22;;;21.03;100.00
71299;BME280;59083;47.974;21.722;2023-06-22T02:11:34;100457.03;;;20.97;100.00
71299;BME280;59083;47.974;21.722;2023-06-22T02:14:36;100451.75;;;20.86;100.00
71299;BME280;59083;47.974;21.722;2023-06-22T02:17:38;100457.56;;;20.94;100.00
71299;BME280;59083;47.974;21.722;2023-06-22T02:20:40;100450.37;;;20.83;100.00
71299;BME280;59083;47.974;21.722;2023-06-22T02:23:41;100450.69;;;20.87;100.00
71299;BME280;59083;47.974;21.722;2023-06-22T02:26:43;100454.22;;;20.87;100.00
71299;BME280;59083;47.974;21.722;2023-06-22T02:29:46;100454.59;;;20.74;100.00
71299;BME280;59083;47.974;21.722;2023-06-22T02:32:47;100458.47;;;20.78;100.00
71299;BME280;59083;47.974;21.722;2023-06-22T02:35:50;100445.88;;;20.67;100.00
71299;BME280;59083;47.974;21.722;2023-06-22T02:38:51;100457.19;;;20.64;100.00
71299;BME280;59083;47.974;21.722;2023-06-22T02:41:53;100456.81;;;20.55;100.00
71299;BME280;59083;47.974;21.722;2023-06-22T02:44:56;100459.41;;;20.67;100.00
71299;BME280;59083;47.974;21.722;2023-06-22T02:47:58;100466.38;;;20.63;100.00
71299;BME280;59083;47.974;21.722;2023-06-22T02:50:59;100473.44;;;20.64;100.00
71299;BME280;59083;47.974;21.722;2023-06-22T02:54:00;100479.31;;;20.78;100.00
71299;BME280;59083;47.974;21.722;2023-06-22T02:57:02;100482.13;;;20.66;100.00
71299;BME280;59083;47.974;21.722;2023-06-22T03:00:04;100490.03;;;20.51;100.00
71299;BME280;59083;47.974;21.722;2023-06-22T03:03:17;100493.97;;;20.60;100.00
71299;BME280;59083;47.974;21.722;2023-06-22T03:06:18;100490.31;;;20.71;100.00
71299;BME280;59083;47.974;21.722;2023-06-22T03:09:24;100506.06;;;20.74;100.00
71299;BME280;59083;47.974;21.722;2023-06-22T03:12:26;100510.03;;;20.67;100.00
71299;BME280;59083;47.974;21.722;2023-06-22T03:15:28;100499.06;;;20.56;100.00
71299;BME280;59083;47.974;21.722;2023-06-22T03:18:30;100494.63;;;20.50;100.00
71299;BME280;59083;47.974;21.722;2023-06-22T03:21:32;100491.56;;;20.42;100.00
71299;BME280;59083;47.974;21.722;2023-06-22T03:24:34;100485.31;;;20.41;100.00
71299;BME280;59083;47.974;21.722;2023-06-22T03:27:41;100492.06;;;20.39;100.00
71299;BME280;59083;47.974;21.722;2023-06-22T03:30:43;100485.47;;;20.35;100.00
71299;BME280;59083;47.974;21.722;2023-06-22T03:33:44;100494.00;;;20.27;100.00
71299;BME280;59083;47.974;21.722;2023-06-22T03:36:45;100494.00;;;20.27;100.00
71299;BME280;59083;47.974;21.722;2023-06-22T03:39:46;100494.50;;;20.23;100.00
71299;BME280;59083;47.974;21.722;2023-06-22T03:42:48;100512.06;;;20.38;100.00
71299;BME280;59083;47.974;21.722;2023-06-22T03:45:50;100513.78;;;20.44;100.00
71299;BME280;59083;47.974;21.722;2023-06-22T03:48:51;100521.56;;;20.40;100.00
71299;BME280;59083;47.974;21.722;2023-06-22T03:51:52;100528.47;;;20.48;100.00
71299;BME280;59083;47.974;21.722;2023-06-22T03:54:53;100526.94;;;20.57;100.00
71299;BME280;59083;47.974;21.722;2023-06-22T03:57:54;100545.97;;;20.62;100.00
71299;BME280;59083;47.974;21.722;2023-06-22T04:00:58;100546.63;;;20.69;100.00
71299;BME280;59083;47.974;21.722;2023-06-22T04:03:59;100542.00;;;20.86;100.00
71299;BME280;59083;47.974;21.722;2023-06-22T04:07:00;100554.09;;;21.00;100.00
71299;BME280;59083;47.974;21.722;2023-06-22T04:10:03;100558.31;;;21.30;100.00
71299;BME280;59083;47.974;21.722;2023-06-22T04:13:04;100553.19;;;21.60;100.00
71299;BME280;59083;47.974;21.722;2023-06-22T04:16:06;100565.09;;;21.81;100.00
71299;BME280;59083;47.974;21.722;2023-06-22T04:19:07;100568.75;;;22.29;100.00
71299;BME280;59083;47.974;21.722;2023-06-22T04:22:08;100571.34;;;22.82;100.00
71299;BME280;59083;47.974;21.722;2023-06-22T04:25:10;100571.81;;;23.26;97.57
71299;BME280;59083;47.974;21.722;2023-06-22T04:28:12;100588.12;;;23.31;96.95
71299;BME280;59083;47.974;21.722;2023-06-22T04:31:13;100585.81;;;23.65;95.49
71299;BME280;59083;47.974;21.722;2023-06-22T04:34:14;100587.72;;;23.60;94.57
71299;BME280;59083;47.974;21.722;2023-06-22T04:37:17;100577.72;;;23.13;95.56
71299;BME280;59083;47.974;21.722;2023-06-22T04:40:18;100589.81;;;23.42;95.17
71299;BME280;59083;47.974;21.722;2023-06-22T04:43:20;100589.16;;;23.10;96.42
71299;BME280;59083;47.974;21.722;2023-06-22T04:46:22;100580.97;;;23.05;96.52
71299;BME280;59083;47.974;21.722;2023-06-22T04:49:23;100575.63;;;23.30;95.99
71299;BME280;59083;47.974;21.722;2023-06-22T04:52:33;100585.56;;;23.62;93.26
71299;BME280;59083;47.974;21.722;2023-06-22T04:55:34;100582.53;;;23.53;92.28
71299;BME280;59083;47.974;21.722;2023-06-22T04:58:35;100579.78;;;22.91;96.42
71299;BME280;59083;47.974;21.722;2023-06-22T05:01:37;100574.94;;;22.93;96.41
71299;BME280;59083;47.974;21.722;2023-06-22T05:04:38;100568.91;;;22.91;95.36
71299;BME280;59083;47.974;21.722;2023-06-22T05:07:43;100567.28;;;22.16;100.00
71299;BME280;59083;47.974;21.722;2023-06-22T05:10:45;100565.50;;;22.27;99.66
71299;BME280;59083;47.974;21.722;2023-06-22T05:13:46;100580.81;;;22.38;99.91
71299;BME280;59083;47.974;21.722;2023-06-22T05:16:48;100585.50;;;22.52;98.84
71299;BME280;59083;47.974;21.722;2023-06-22T05:19:49;100590.31;;;22.40;100.00
71299;BME280;59083;47.974;21.722;2023-06-22T05:22:50;100590.91;;;22.47;99.37
71299;BME280;59083;47.974;21.722;2023-06-22T05:25:51;100592.91;;;22.62;98.95
71299;BME280;59083;47.974;21.722;2023-06-22T05:28:53;100579.87;;;23.01;96.19
71299;BME280;59083;47.974;21.722;2023-06-22T05:31:54;100574.88;;;23.45;94.54
71299;BME280;59083;47.974;21.722;2023-06-22T05:34:55;100578.53;;;24.01;91.03
71299;BME280;59083;47.974;21.722;2023-06-22T05:37:57;100574.59;;;25.14;85.54
71299;BME280;59083;47.974;21.722;2023-06-22T05:40:58;100555.03;;;25.56;83.41
71299;BME280;59083;47.974;21.722;2023-06-22T05:43:59;100566.22;;;25.00;85.95
71299;BME280;59083;47.974;21.722;2023-06-22T05:47:00;100558.38;;;24.53;86.88
71299;BME280;59083;47.974;21.722;2023-06-22T05:50:02;100568.72;;;24.15;88.29
71299;BME280;59083;47.974;21.722;2023-06-22T05:53:07;100564.91;;;24.16;88.63
71299;BME280;59083;47.974;21.722;2023-06-22T05:56:08;100574.19;;;24.46;88.33
71299;BME280;59083;47.974;21.722;2023-06-22T05:59:10;100536.56;;;24.63;86.76
71299;BME280;59083;47.974;21.722;2023-06-22T06:02:11;100539.84;;;24.45;86.15
71299;BME280;59083;47.974;21.722;2023-06-22T06:05:12;100567.28;;;24.84;86.14
71299;BME280;59083;47.974;21.722;2023-06-22T06:08:16;100569.59;;;25.31;84.31
71299;BME280;59083;47.974;21.722;2023-06-22T06:11:18;100570.44;;;25.26;83.80
71299;BME280;59083;47.974;21.722;2023-06-22T06:14:19;100575.19;;;24.95;85.08
71299;BME280;59083;47.974;21.722;2023-06-22T06:17:21;100578.56;;;25.90;81.96
71299;BME280;59083;47.974;21.722;2023-06-22T06:20:25;100583.16;;;25.56;80.88
71299;BME280;59083;47.974;21.722;2023-06-22T06:23:26;100596.06;;;25.30;82.85
71299;BME280;59083;47.974;21.722;2023-06-22T06:26:27;100610.59;;;25.16;84.49
71299;BME280;59083;47.974;21.722;2023-06-22T06:29:34;100610.41;;;24.92;84.89
71299;BME280;59083;47.974;21.722;2023-06-22T06:32:35;100618.91;;;24.60;86.08
71299;BME280;59083;47.974;21.722;2023-06-22T06:35:36;100616.41;;;24.68;86.07
71299;BME280;59083;47.974;21.722;2023-06-22T06:38:38;100612.34;;;24.51;86.98
71299;BME280;59083;47.974;21.722;2023-06-22T06:41:39;100608.25;;;24.63;85.98
71299;BME280;59083;47.974;21.722;2023-06-22T06:44:44;100612.84;;;24.73;85.89
71299;BME280;59083;47.974;21.722;2023-06-22T06:47:46;100617.00;;;25.55;82.76
71299;BME280;59083;47.974;21.722;2023-06-22T06:50:47;100633.47;;;25.30;82.85
71299;BME280;59083;47.974;21.722;2023-06-22T06:53:48;100637.37;;;25.03;84.17
71299;BME280;59083;47.974;21.722;2023-06-22T06:56:49;100643.69;;;24.89;85.09
71299;BME280;59083;47.974;21.722;2023-06-22T06:59:51;100632.47;;;24.85;84.61
71299;BME280;59083;47.974;21.722;2023-06-22T07:02:52;100625.91;;;25.12;83.65
71299;BME280;59083;47.974;21.722;2023-06-22T07:05:54;100627.75;;;26.29;79.04
71299;BME280;59083;47.974;21.722;2023-06-22T07:08:55;100626.53;;;26.74;76.83
71299;BME280;59083;47.974;21.722;2023-06-22T07:11:56;100625.94;;;27.54;73.28
71299;BME280;59083;47.974;21.722;2023-06-22T07:15:05;100634.47;;;28.60;69.61
71299;BME280;59083;47.974;21.722;2023-06-22T07:18:09;100619.75;;;29.15;65.89
71299;BME280;59083;47.974;21.722;2023-06-22T07:21:10;100614.16;;;30.20;63.20
71299;BME280;59083;47.974;21.722;2023-06-22T07:24:11;100622.97;;;30.75;59.60
71299;BME280;59083;47.974;21.722;2023-06-22T07:27:12;100620.06;;;31.59;58.44
71299;BME280;59083;47.974;21.722;2023-06-22T07:30:14;100630.13;;;29.60;61.42
71299;BME280;59083;47.974;21.722;2023-06-22T07:33:15;100636.50;;;27.84;68.46
71299;BME280;59083;47.974;21.722;2023-06-22T07:36:17;100636.13;;;27.48;70.87
71299;BME280;59083;47.974;21.722;2023-06-22T07:39:18;100630.91;;;29.05;65.00
71299;BME280;59083;47.974;21.722;2023-06-22T07:42:19;100637.19;;;29.74;62.96
71299;BME280;59083;47.974;21.722;2023-06-22T07:45:20;100650.09;;;28.13;67.36
71299;BME280;59083;47.974;21.722;2023-06-22T07:48:22;100653.91;;;29.64;62.68
71299;BME280;59083;47.974;21.722;2023-06-22T07:51:23;100642.97;;;29.37;63.09
71299;BME280;59083;47.974;21.722;2023-06-22T07:54:25;100637.03;;;29.71;62.80
71299;BME280;59083;47.974;21.722;2023-06-22T07:57:26;100644.91;;;30.00;61.04
71299;BME280;59083;47.974;21.722;2023-06-22T08:00:33;100647.44;;;29.60;63.18
71299;BME280;59083;47.974;21.722;2023-06-22T08:03:35;100646.84;;;30.57;59.80
71299;BME280;59083;47.974;21.722;2023-06-22T08:06:36;100641.97;;;29.33;62.46
71299;BME280;59083;47.974;21.722;2023-06-22T08:09:37;100632.78;;;28.31;66.61
71299;BME280;59083;47.974;21.722;2023-06-22T08:12:39;100634.41;;;27.95;68.29
71299;BME280;59083;47.974;21.722;2023-06-22T08:15:41;100629.59;;;27.87;69.14
71299;BME280;59083;47.974;21.722;2023-06-22T08:18:42;100634.28;;;28.24;67.40
71299;BME280;59083;47.974;21.722;2023-06-22T08:21:44;100638.59;;;30.57;60.14
71299;BME280;59083;47.974;21.722;2023-06-22T08:24:45;100642.00;;;30.41;59.56
71299;BME280;59083;47.974;21.722;2023-06-22T08:27:47;100638.69;;;30.74;59.65
71299;BME280;59083;47.974;21.722;2023-06-22T08:30:49;100642.69;;;30.68;56.94
71299;BME280;59083;47.974;21.722;2023-06-22T08:33:50;100648.66;;;32.06;54.03
71299;BME280;59083;47.974;21.722;2023-06-22T08:36:51;100648.28;;;31.65;55.68
71299;BME280;59083;47.974;21.722;2023-06-22T08:39:53;100641.69;;;32.00;54.06
71299;BME280;59083;47.974;21.722;2023-06-22T08:42:54;100647.19;;;32.00;53.83
71299;BME280;59083;47.974;21.722;2023-06-22T08:45:56;100642.34;;;32.31;52.79
71299;BME280;59083;47.974;21.722;2023-06-22T08:48:57;100644.34;;;30.78;56.40
71299;BME280;59083;47.974;21.722;2023-06-22T08:51:59;100648.81;;;29.71;60.67
71299;BME280;59083;47.974;21.722;2023-06-22T08:55:00;100644.31;;;30.47;59.90
71299;BME280;59083;47.974;21.722;2023-06-22T08:58:01;100638.13;;;31.34;56.53
71299;BME280;59083;47.974;21.722;2023-06-22T09:01:02;100640.53;;;31.92;54.54
71299;BME280;59083;47.974;21.722;2023-06-22T09:04:04;100639.81;;;31.52;55.61
71299;BME280;59083;47.974;21.722;2023-06-22T09:07:06;100636.09;;;31.48;56.02
71299;BME280;59083;47.974;21.722;2023-06-22T09:10:08;100635.66;;;31.98;54.90
71299;BME280;59083;47.974;21.722;2023-06-22T09:13:09;100640.06;;;32.33;52.85
71299;BME280;59083;47.974;21.722;2023-06-22T09:16:10;100629.50;;;32.44;52.40
71299;BME280;59083;47.974;21.722;2023-06-22T09:19:12;100630.16;;;31.89;53.90
71299;BME280;59083;47.974;21.722;2023-06-22T09:22:14;100634.34;;;29.79;60.84
71299;BME280;59083;47.974;21.722;2023-06-22T09:25:15;100632.06;;;30.53;59.40
71299;BME280;59083;47.974;21.722;2023-06-22T09:28:17;100624.22;;;29.11;62.96
71299;BME280;59083;47.974;21.722;2023-06-22T09:31:18;100610.69;;;28.42;66.24
71299;BME280;59083;47.974;21.722;2023-06-22T09:34:26;100627.91;;;29.21;64.50
71299;BME280;59083;47.974;21.722;2023-06-22T09:37:27;100622.06;;;30.13;61.08
71299;BME280;59083;47.974;21.722;2023-06-22T09:40:28;100620.41;;;30.87;59.11
71299;BME280;59083;47.974;21.722;2023-06-22T09:43:31;100619.56;;;30.69;58.12
71299;BME280;59083;47.974;21.722;2023-06-22T09:46:33;100611.31;;;30.47;57.92
71299;BME280;59083;47.974;21.722;2023-06-22T09:49:34;100627.09;;;29.34;62.17
71299;BME280;59083;47.974;21.722;2023-06-22T09:52:36;100628.13;;;28.64;64.38
71299;BME280;59083;47.974;21.722;2023-06-22T09:55:37;100625.72;;;28.44;65.42
71299;BME280;59083;47.974;21.722;2023-06-22T09:58:38;100629.09;;;28.87;65.25
71299;BME280;59083;47.974;21.722;2023-06-22T10:01:39;100633.16;;;29.17;62.75
71299;BME280;59083;47.974;21.722;2023-06-22T10:04:41;100624.69;;;29.68;60.90
71299;BME280;59083;47.974;21.722;2023-06-22T10:07:42;100616.84;;;29.75;61.35
71299;BME280;59083;47.974;21.722;2023-06-22T10:10:44;100615.31;;;29.33;62.19
71299;BME280;59083;47.974;21.722;2023-06-22T10:13:45;100605.03;;;29.39;62.42
71299;BME280;59083;47.974;21.722;2023-06-22T10:16:48;100607.56;;;29.49;62.95
71299;BME280;59083;47.974;21.722;2023-06-22T10:19:49;100613.41;;;28.74;64.29
71299;BME280;59083;47.974;21.722;2023-06-22T10:22:50;100620.34;;;28.20;66.31
71299;BME280;59083;47.974;21.722;2023-06-22T10:25:52;100611.66;;;28.32;65.84
71299;BME280;59083;47.974;21.722;2023-06-22T10:28:53;100617.69;;;28.15;67.45
71299;BME280;59083;47.974;21.722;2023-06-22T10:31:54;100618.81;;;28.47;66.05
71299;BME280;59083;47.974;21.722;2023-06-22T10:34:55;100615.81;;;28.62;65.64
71299;BME280;59083;47.974;21.722;2023-06-22T10:37:56;100616.37;;;28.91;64.78
71299;BME280;59083;47.974;21.722;2023-06-22T10:40:58;100613.84;;;29.08;64.33
71299;BME280;59083;47.974;21.722;2023-06-22T10:43:59;100619.56;;;28.66;65.85
71299;BME280;59083;47.974;21.722;2023-06-22T10:47:00;100607.94;;;28.74;65.46
71299;BME280;59083;47.974;21.722;2023-06-22T10:50:02;100613.22;;;28.84;65.57
71299;BME280;59083;47.974;21.722;2023-06-22T10:53:03;100612.22;;;28.94;65.23
71299;BME280;59083;47.974;21.722;2023-06-22T10:56:04;100610.59;;;28.79;65.69
71299;BME280;59083;47.974;21.722;2023-06-22T10:59:06;100608.09;;;28.64;65.32
71299;BME280;59083;47.974;21.722;2023-06-22T11:02:07;100607.13;;;29.01;64.36
71299;BME280;59083;47.974;21.722;2023-06-22T11:05:09;100591.31;;;29.39;62.91
71299;BME280;59083;47.974;21.722;2023-06-22T11:08:10;100597.38;;;29.85;60.89
71299;BME280;59083;47.974;21.722;2023-06-22T11:11:11;100600.13;;;29.85;60.46
71299;BME280;59083;47.974;21.722;2023-06-22T11:14:12;100595.03;;;29.92;59.85
71299;BME280;59083;47.974;21.722;2023-06-22T11:17:14;100599.03;;;29.37;61.71
71299;BME280;59083;47.974;21.722;2023-06-22T11:20:15;100598.91;;;28.55;65.11
71299;BME280;59083;47.974;21.722;2023-06-22T11:23:16;100597.63;;;28.66;64.97
71299;BME280;59083;47.974;21.722;2023-06-22T11:26:17;100595.09;;;28.69;65.10
71299;BME280;59083;47.974;21.722;2023-06-22T11:29:19;100601.34;;;28.75;64.65
71299;BME280;59083;47.974;21.722;2023-06-22T11:32:20;100587.19;;;29.23;62.58
71299;BME280;59083;47.974;21.722;2023-06-22T11:35:21;100590.66;;;29.42;61.42
71299;BME280;59083;47.974;21.722;2023-06-22T11:38:22;100590.25;;;29.35;61.26
71299;BME280;59083;47.974;21.722;2023-06-22T11:41:23;100587.09;;;29.28;60.91
71299;BME280;59083;47.974;21.722;2023-06-22T11:44:24;100599.63;;;29.20;61.51
71299;BME280;59083;47.974;21.722;2023-06-22T11:47:26;100595.16;;;29.10;62.01
71299;BME280;59083;47.974;21.722;2023-06-22T11:50:27;100600.81;;;29.00;62.75
71299;BME280;59083;47.974;21.722;2023-06-22T11:53:31;100594.94;;;28.47;65.17
71299;BME280;59083;47.974;21.722;2023-06-22T11:56:32;100592.78;;;28.44;64.93
71299;BME280;59083;47.974;21.722;2023-06-22T11:59:34;100595.63;;;28.39;65.16
71299;BME280;59083;47.974;21.722;2023-06-22T12:02:35;100595.25;;;28.46;66.07
71299;BME280;59083;47.974;21.722;2023-06-22T12:05:36;100585.22;;;28.22;66.47
71299;BME280;59083;47.974;21.722;2023-06-22T12:08:37;100590.09;;;28.25;66.70
71299;BME280;59083;47.974;21.722;2023-06-22T12:11:39;100589.94;;;28.35;65.87
71299;BME280;59083;47.974;21.722;2023-06-22T12:14:40;100578.00;;;28.59;65.01
71299;BME280;59083;47.974;21.722;2023-06-22T12:17:41;100579.03;;;28.63;64.68
71299;BME280;59083;47.974;21.722;2023-06-22T12:20:42;100574.75;;;28.57;64.52
71299;BME280;59083;47.974;21.722;2023-06-22T12:23:44;100569.13;;;28.81;64.00
71299;BME280;59083;47.974;21.722;2023-06-22T12:26:45;100574.19;;;29.01;64.09
71299;BME280;59083;47.974;21.722;2023-06-22T12:29:46;100566.84;;;29.24;63.71
71299;BME280;59083;47.974;21.722;2023-06-22T12:32:48;100555.84;;;29.51;62.39
71299;BME280;59083;47.974;21.722;2023-06-22T12:35:50;100556.25;;;29.58;62.07
71299;BME280;59083;47.974;21.722;2023-06-22T12:38:51;100557.06;;;29.58;60.90
71299;BME280;59083;47.974;21.722;2023-06-22T12:41:53;100554.59;;;29.57;61.17
71299;BME280;59083;47.974;21.722;2023-06-22T12:44:54;100558.00;;;29.54;61.08
71299;BME280;59083;47.974;21.722;2023-06-22T12:47:55;100557.88;;;29.59;60.50
71299;BME280;59083;47.974;21.722;2023-06-22T12:50:56;100554.41;;;29.67;61.00
71299;BME280;59083;47.974;21.722;2023-06-22T12:53:57;100544.59;;;29.75;60.89
71299;BME280;59083;47.974;21.722;2023-06-22T12:56:58;100537.28;;;29.70;60.70
71299;BME280;59083;47.974;21.722;2023-06-22T13:00:00;100530.62;;;29.49;58.93
71299;BME280;59083;47.974;21.722;2023-06-22T13:03:01;100533.78;;;29.29;59.74
71299;BME280;59083;47.974;21.722;2023-06-22T13:06:03;100532.69;;;29.30;60.65
71299;BME280;59083;47.974;21.722;2023-06-22T13:09:04;100517.84;;;29.31;61.08
71299;BME280;59083;47.974;21.722;2023-06-22T13:12:06;100510.63;;;29.35;60.75
71299;BME280;59083;47.974;21.722;2023-06-22T13:15:07;100512.47;;;29.26;61.35
71299;BME280;59083;47.974;21.722;2023-06-22T13:18:09;100506.03;;;29.16;60.21
71299;BME280;59083;47.974;21.722;2023-06-22T13:21:10;100501.41;;;29.03;60.80
71299;BME280;59083;47.974;21.722;2023-06-22T13:24:11;100497.56;;;29.04;60.90
71299;BME280;59083;47.974;21.722;2023-06-22T13:27:12;100487.75;;;29.12;60.69
71299;BME280;59083;47.974;21.722;2023-06-22T13:30:14;100486.75;;;29.08;60.58
71299;BME280;59083;47.974;21.722;2023-06-22T13:33:15;100475.97;;;29.11;60.66
71299;BME280;59083;47.974;21.722;2023-06-22T13:36:17;100479.22;;;29.13;60.80
71299;BME280;59083;47.974;21.722;2023-06-22T13:39:18;100471.81;;;29.14;60.49
71299;BME280;59083;47.974;21.722;2023-06-22T13:42:20;100478.41;;;29.13;59.40
71299;BME280;59083;47.974;21.722;2023-06-22T13:45:21;100484.31;;;29.06;59.99
71299;BME280;59083;47.974;21.722;2023-06-22T13:48:22;100486.34;;;29.14;60.11
71299;BME280;59083;47.974;21.722;2023-06-22T13:51:24;100484.69;;;29.27;59.12
71299;BME280;59083;47.974;21.722;2023-06-22T13:54:25;100484.47;;;29.24;59.15
71299;BME280;59083;47.974;21.722;2023-06-22T13:57:26;100481.25;;;29.22;59.70
71299;BME280;59083;47.974;21.722;2023-06-22T14:00:28;100470.03;;;29.32;59.55
71299;BME280;59083;47.974;21.722;2023-06-22T14:03:29;100460.69;;;29.33;59.37
71299;BME280;59083;47.974;21.722;2023-06-22T14:06:30;100467.87;;;29.29;59.41
71299;BME280;59083;47.974;21.722;2023-06-22T14:09:31;100462.91;;;29.31;59.04
71299;BME280;59083;47.974;21.722;2023-06-22T14:12:32;100465.56;;;29.36;58.75
71299;BME280;59083;47.974;21.722;2023-06-22T14:15:34;100461.69;;;29.37;59.28
71299;BME280;59083;47.974;21.722;2023-06-22T14:18:35;100464.31;;;29.42;59.08
71299;BME280;59083;47.974;21.722;2023-06-22T14:21:36;100454.19;;;29.51;58.91
71299;BME280;59083;47.974;21.722;2023-06-22T14:24:37;100448.22;;;29.49;58.30
71299;BME280;59083;47.974;21.722;2023-06-22T14:27:39;100447.22;;;29.45;58.28
71299;BME280;59083;47.974;21.722;2023-06-22T14:30:40;100445.59;;;29.44;58.48
71299;BME280;59083;47.974;21.722;2023-06-22T14:33:45;100441.41;;;29.46;58.75
71299;BME280;59083;47.974;21.722;2023-06-22T14:36:46;100441.03;;;29.39;59.44
71299;BME280;59083;47.974;21.722;2023-06-22T14:39:48;100441.97;;;29.35;59.21
71299;BME280;59083;47.974;21.722;2023-06-22T14:42:49;100446.91;;;29.10;58.37
71299;BME280;59083;47.974;21.722;2023-06-22T14:45:50;100446.09;;;29.10;59.17
71299;BME280;59083;47.974;21.722;2023-06-22T14:48:51;100444.66;;;29.12;58.94
71299;BME280;59083;47.974;21.722;2023-06-22T14:51:52;100435.81;;;29.15;58.19
71299;BME280;59083;47.974;21.722;2023-06-22T14:54:54;100436.41;;;29.12;58.79
71299;BME280;59083;47.974;21.722;2023-06-22T14:57:56;100441.41;;;29.10;58.82
71299;BME280;59083;47.974;21.722;2023-06-22T15:00:57;100431.16;;;29.02;59.33
71299;BME280;59083;47.974;21.722;2023-06-22T15:03:58;100440.63;;;28.96;59.29
71299;BME280;59083;47.974;21.722;2023-06-22T15:06:59;100446.31;;;29.00;59.76
71299;BME280;59083;47.974;21.722;2023-06-22T15:10:00;100438.41;;;28.98;59.77
71299;BME280;59083;47.974;21.722;2023-06-22T15:13:01;100434.13;;;28.92;59.88
71299;BME280;59083;47.974;21.722;2023-06-22T15:16:03;100435.12;;;28.96;60.20
71299;BME280;59083;47.974;21.722;2023-06-22T15:19:04;100429.66;;;28.96;60.92
71299;BME280;59083;47.974;21.722;2023-06-22T15:22:07;100438.41;;;28.98;60.68
71299;BME280;59083;47.974;21.722;2023-06-22T15:25:08;100427.19;;;29.08;60.71
71299;BME280;59083;47.974;21.722;2023-06-22T15:28:09;100426.44;;;29.16;60.24
71299;BME280;59083;47.974;21.722;2023-06-22T15:31:10;100429.16;;;29.16;60.07
71299;BME280;59083;47.974;21.722;2023-06-22T15:34:13;100429.81;;;29.13;60.43
71299;BME280;59083;47.974;21.722;2023-06-22T15:37:14;100427.37;;;29.12;60.51
71299;BME280;59083;47.974;21.722;2023-06-22T15:40:17;100425.94;;;29.14;60.31